createdAt,value
2022-11-27T00:01:33.755Z,54.51
2022-11-27T00:04:00.871Z,54.59
2022-11-27T00:06:29.151Z,55.06
2022-11-27T00:09:05.331Z,55.90
2022-11-27T00:11:32.214Z,56.25
2022-11-27T00:13:59.627Z,56.33
2022-11-27T00:16:27.736Z,56.36
2022-11-27T00:18:54.580Z,56.97
2022-11-27T00:21:25.116Z,56.78
2022-11-27T00:23:53.728Z,56.49
2022-11-27T00:26:21.553Z,56.57
2022-11-27T00:28:48.624Z,56.95
2022-11-27T00:31:21.227Z,56.32
2022-11-27T00:33:48.183Z,56.46
2022-11-27T00:36:16.190Z,56.24
2022-11-27T00:38:43.121Z,55.93
2022-11-27T00:41:14.373Z,56.54
2022-11-27T00:43:44.648Z,56.18
2022-11-27T00:46:13.754Z,56.62
2022-11-27T00:48:41.705Z,56.52
2022-11-27T00:51:11.891Z,57.15
2022-11-27T00:53:38.733Z,57.60
2022-11-27T00:56:05.684Z,57.00
2022-11-27T00:58:32.788Z,57.40
2022-11-27T01:01:05.929Z,57.52
2022-11-27T01:03:33.650Z,57.54
2022-11-27T01:06:05.915Z,57.49
2022-11-27T01:08:33.744Z,57.65
2022-11-27T01:11:01.106Z,57.31
2022-11-27T01:13:32.183Z,57.33
2022-11-27T01:16:10.825Z,56.92
2022-11-27T01:18:39.547Z,56.77
2022-11-27T01:21:06.894Z,57.31
2022-11-27T01:23:33.743Z,57.00
2022-11-27T01:26:02.218Z,57.25
2022-11-27T01:28:29.000Z,56.64
2022-11-27T01:30:55.708Z,56.85
2022-11-27T01:33:22.670Z,57.21
2022-11-27T01:36:00.962Z,57.25
2022-11-27T01:38:28.831Z,57.31
2022-11-27T01:41:08.052Z,57.74
2022-11-27T01:43:51.147Z,57.42
2022-11-27T01:46:23.902Z,57.05
2022-11-27T01:48:53.088Z,57.23
2022-11-27T01:51:22.259Z,56.98
2022-11-27T01:53:49.882Z,56.65
2022-11-27T01:56:16.554Z,56.89
2022-11-27T01:58:43.606Z,56.49
2022-11-27T02:01:10.773Z,56.54
2022-11-27T02:03:37.539Z,56.68
2022-11-27T02:06:04.494Z,56.51
2022-11-27T02:08:31.338Z,56.72
2022-11-27T02:11:00.615Z,56.81
2022-11-27T02:13:34.071Z,56.83
2022-11-27T02:16:17.768Z,57.08
2022-11-27T02:19:15.199Z,57.57
2022-11-27T02:21:53.452Z,57.83
2022-11-27T02:24:42.256Z,58.33
2022-11-27T02:27:34.613Z,58.35
2022-11-27T02:30:03.378Z,58.24
2022-11-27T02:32:53.800Z,58.19
2022-11-27T02:35:26.091Z,58.22
2022-11-27T02:37:58.417Z,58.11
2022-11-27T02:40:52.904Z,58.10
2022-11-27T02:43:25.790Z,58.38
2022-11-27T02:45:53.552Z,58.05
2022-11-27T02:48:24.871Z,57.93
2022-11-27T02:50:53.652Z,58.23
2022-11-27T02:53:28.445Z,58.53
2022-11-27T02:55:57.372Z,58.05
2022-11-27T02:58:27.975Z,58.32
2022-11-27T03:00:56.968Z,58.05
2022-11-27T03:03:33.111Z,58.46
2022-11-27T03:06:06.270Z,58.32
2022-11-27T03:08:41.336Z,57.95
2022-11-27T03:11:10.529Z,58.01
2022-11-27T03:13:59.147Z,58.21
2022-11-27T03:16:50.041Z,58.34
2022-11-27T03:19:22.894Z,58.16
2022-11-27T03:21:53.578Z,58.21
2022-11-27T03:24:20.362Z,58.55
2022-11-27T03:26:47.654Z,58.33
2022-11-27T03:29:23.394Z,58.40
2022-11-27T03:31:50.230Z,58.25
2022-11-27T03:34:17.402Z,58.46
2022-11-27T03:36:45.661Z,58.49
2022-11-27T03:39:12.578Z,58.36
2022-11-27T03:41:39.365Z,59.03
2022-11-27T03:44:34.023Z,58.77
2022-11-27T03:47:15.956Z,59.12
2022-11-27T03:50:01.194Z,58.96
2022-11-27T03:52:46.728Z,59.11
2022-11-27T03:55:21.556Z,59.38
2022-11-27T03:58:04.953Z,59.54
2022-11-27T04:00:37.698Z,59.42
2022-11-27T04:03:05.075Z,59.81
2022-11-27T04:05:31.767Z,59.53
2022-11-27T04:07:58.458Z,59.59
2022-11-27T04:10:25.087Z,60.11
2022-11-27T04:12:51.856Z,60.17
2022-11-27T04:15:18.613Z,59.63
2022-11-27T04:17:45.457Z,59.48
2022-11-27T04:20:14.064Z,59.91
2022-11-27T04:22:41.148Z,59.80
2022-11-27T04:25:08.195Z,59.82
2022-11-27T04:27:34.800Z,60.01
2022-11-27T04:30:01.552Z,59.60
2022-11-27T04:32:28.191Z,60.06
2022-11-27T04:34:54.906Z,59.74
2022-11-27T04:37:21.610Z,59.81
2022-11-27T04:39:48.375Z,59.79
2022-11-27T04:42:15.012Z,59.58
2022-11-27T04:44:41.910Z,59.41
2022-11-27T04:47:08.882Z,59.51
2022-11-27T04:49:36.609Z,59.91
2022-11-27T04:52:04.131Z,59.75
2022-11-27T04:54:30.948Z,59.88
2022-11-27T04:57:00.283Z,59.78
2022-11-27T04:59:26.949Z,60.24
2022-11-27T05:01:53.689Z,60.16
2022-11-27T05:04:21.304Z,60.03
2022-11-27T05:06:48.284Z,59.72
2022-11-27T05:09:17.343Z,59.53
2022-11-27T05:11:44.423Z,59.26
2022-11-27T05:14:18.240Z,59.33
2022-11-27T05:16:46.224Z,59.54
2022-11-27T05:19:14.404Z,59.44
2022-11-27T05:21:41.812Z,59.24
2022-11-27T05:24:09.081Z,60.20
2022-11-27T05:26:37.015Z,60.27
2022-11-27T05:29:03.967Z,60.83
2022-11-27T05:31:31.243Z,60.83
2022-11-27T05:33:58.033Z,60.62
2022-11-27T05:36:25.205Z,60.58
2022-11-27T05:38:52.438Z,60.70
2022-11-27T05:41:19.511Z,61.23
2022-11-27T05:43:46.251Z,60.98
2022-11-27T05:46:16.971Z,61.60
2022-11-27T05:48:43.621Z,61.39
2022-11-27T05:51:10.258Z,61.66
2022-11-27T05:53:36.998Z,61.47
2022-11-27T05:56:21.662Z,61.54
2022-11-27T05:58:48.862Z,61.92
2022-11-27T06:01:17.315Z,61.30
2022-11-27T06:03:44.424Z,61.58
2022-11-27T06:06:21.004Z,61.41
2022-11-27T06:08:48.096Z,62.15
2022-11-27T06:11:17.979Z,62.01
2022-11-27T06:13:46.307Z,62.07
2022-11-27T06:16:21.748Z,61.86
2022-11-27T06:18:55.927Z,61.85
2022-11-27T06:21:24.140Z,61.71
2022-11-27T06:23:55.439Z,61.72
2022-11-27T06:26:28.014Z,61.56
2022-11-27T06:28:56.163Z,61.73
2022-11-27T06:31:25.674Z,61.56
2022-11-27T06:33:54.152Z,61.57
2022-11-27T06:36:21.988Z,61.73
2022-11-27T06:38:48.652Z,61.73
2022-11-27T06:41:21.450Z,61.70
2022-11-27T06:43:48.476Z,61.82
2022-11-27T06:46:17.977Z,62.00
2022-11-27T06:48:46.367Z,62.33
2022-11-27T06:51:16.185Z,62.41
2022-11-27T06:53:44.067Z,62.31
2022-11-27T06:56:14.079Z,61.84
2022-11-27T06:58:41.650Z,71.32
2022-11-27T07:01:12.332Z,68.67
2022-11-27T07:03:39.146Z,64.27
2022-11-27T07:06:07.628Z,65.96
2022-11-27T07:08:35.438Z,63.16
2022-11-27T07:11:10.653Z,59.26
2022-11-27T07:13:37.329Z,60.41
2022-11-27T07:16:07.200Z,59.35
2022-11-27T07:18:42.245Z,58.82
2022-11-27T07:21:09.880Z,58.13
2022-11-27T07:23:36.932Z,57.82
2022-11-27T07:26:11.478Z,57.23
2022-11-27T07:28:38.332Z,58.55
2022-11-27T07:31:05.903Z,57.24
2022-11-27T07:33:32.759Z,57.35
2022-11-27T07:36:03.858Z,59.61
2022-11-27T07:38:30.596Z,58.24
2022-11-27T07:41:04.240Z,57.67
2022-11-27T07:43:32.574Z,58.90
2022-11-27T07:46:02.947Z,56.72
2022-11-27T07:48:29.737Z,56.57
2022-11-27T07:50:56.418Z,57.03
2022-11-27T07:53:23.059Z,56.08
2022-11-27T07:55:49.757Z,55.48
2022-11-27T07:58:16.549Z,56.52
2022-11-27T08:00:43.349Z,57.00
2022-11-27T08:03:11.012Z,57.83
2022-11-27T08:05:38.188Z,57.81
2022-11-27T08:08:05.029Z,58.32
2022-11-27T08:10:35.124Z,58.66
2022-11-27T08:13:02.051Z,58.45
2022-11-27T08:15:28.793Z,58.15
2022-11-27T08:17:55.436Z,58.12
2022-11-27T08:20:22.265Z,57.69
2022-11-27T08:22:49.427Z,57.80
2022-11-27T08:25:16.192Z,57.75
2022-11-27T08:27:43.465Z,57.16
2022-11-27T08:30:10.781Z,57.70
2022-11-27T08:32:42.419Z,57.05
2022-11-27T08:35:11.440Z,56.90
2022-11-27T08:37:38.252Z,56.62
2022-11-27T08:40:05.761Z,56.96
2022-11-27T08:42:32.410Z,56.91
2022-11-27T08:44:59.375Z,56.46
2022-11-27T08:47:26.218Z,56.19
2022-11-27T08:49:53.046Z,56.98
2022-11-27T08:52:20.599Z,56.49
2022-11-27T08:54:47.360Z,56.53
2022-11-27T08:57:14.012Z,56.76
2022-11-27T08:59:41.958Z,58.06
2022-11-27T09:02:12.792Z,58.53
2022-11-27T09:04:39.958Z,55.72
2022-11-27T09:07:06.908Z,55.43
2022-11-27T09:09:33.576Z,54.41
2022-11-27T09:12:00.262Z,54.63
2022-11-27T09:14:26.874Z,54.90
2022-11-27T09:16:53.974Z,53.81
2022-11-27T09:19:21.762Z,54.02
2022-11-27T09:21:49.895Z,52.95
2022-11-27T09:24:16.599Z,53.54
2022-11-27T09:26:44.819Z,53.17
2022-11-27T09:29:11.591Z,52.90
2022-11-27T09:31:38.303Z,52.56
2022-11-27T09:34:05.849Z,52.81
2022-11-27T09:36:32.822Z,52.80
2022-11-27T09:39:00.327Z,52.52
2022-11-27T09:41:39.691Z,52.24
2022-11-27T09:44:27.908Z,52.82
2022-11-27T09:46:57.060Z,52.48
2022-11-27T09:49:35.359Z,51.70
2022-11-27T09:52:13.831Z,51.56
2022-11-27T09:54:55.555Z,51.74
2022-11-27T09:57:29.297Z,51.66
2022-11-27T10:00:01.667Z,51.51
2022-11-27T10:02:33.011Z,51.49
2022-11-27T10:05:13.967Z,51.67
2022-11-27T10:08:07.107Z,51.59
2022-11-27T10:10:42.525Z,51.20
2022-11-27T10:13:39.057Z,51.33
2022-11-27T10:16:11.478Z,51.99
2022-11-27T10:18:47.947Z,52.22
2022-11-27T10:21:41.538Z,51.74
2022-11-27T10:24:37.882Z,51.68
2022-11-27T10:27:16.440Z,51.50
2022-11-27T10:29:53.586Z,51.93
2022-11-27T10:35:19.957Z,51.72
2022-11-27T10:37:53.130Z,51.87
2022-11-27T10:40:27.197Z,51.86
2022-11-27T10:43:08.011Z,51.98
2022-11-27T10:45:37.477Z,51.85
2022-11-27T10:48:04.796Z,51.83
2022-11-27T10:50:31.570Z,51.68
2022-11-27T10:53:02.596Z,51.44
2022-11-27T10:55:57.112Z,51.43
2022-11-27T10:58:32.951Z,51.42
2022-11-27T11:01:15.607Z,51.23
2022-11-27T11:03:42.563Z,51.35
2022-11-27T11:06:22.414Z,50.98
2022-11-27T11:09:05.951Z,50.75
2022-11-27T11:11:32.858Z,50.78
2022-11-27T11:13:59.643Z,50.75
2022-11-27T11:16:34.814Z,50.15
2022-11-27T11:19:02.719Z,50.14
2022-11-27T11:21:35.423Z,49.90
2022-11-27T11:24:05.241Z,49.84
2022-11-27T11:26:37.992Z,49.78
2022-11-27T11:29:16.274Z,49.06
2022-11-27T11:31:43.212Z,49.39
2022-11-27T11:34:25.165Z,48.97
2022-11-27T11:37:00.808Z,49.01
2022-11-27T11:39:31.818Z,48.74
2022-11-27T11:41:58.603Z,48.72
2022-11-27T11:44:49.966Z,48.63
2022-11-27T11:47:19.744Z,48.50
2022-11-27T11:49:46.899Z,48.42
2022-11-27T11:52:22.145Z,48.76
2022-11-27T11:55:00.967Z,48.84
2022-11-27T11:57:45.740Z,48.88
2022-11-27T12:00:26.613Z,48.83
2022-11-27T12:03:18.339Z,49.16
2022-11-27T12:06:15.178Z,49.59
2022-11-27T12:09:16.983Z,49.89
2022-11-27T12:11:54.631Z,50.78
2022-11-27T12:14:27.079Z,51.45
2022-11-27T12:17:26.032Z,52.57
2022-11-27T12:19:53.042Z,53.04
2022-11-27T12:22:40.303Z,53.15
2022-11-27T12:25:12.882Z,53.37
2022-11-27T12:28:01.899Z,53.23
2022-11-27T12:30:56.606Z,53.11
2022-11-27T12:34:00.541Z,53.50
2022-11-27T12:37:14.700Z,54.04
2022-11-27T12:40:04.441Z,54.33
2022-11-27T12:42:51.022Z,54.28
2022-11-27T12:45:36.404Z,54.40
2022-11-27T12:48:12.292Z,54.09
2022-11-27T12:50:41.675Z,53.85
2022-11-27T12:53:39.292Z,53.86
2022-11-27T12:56:21.043Z,54.01
2022-11-27T12:58:54.426Z,53.96
2022-11-27T13:01:29.410Z,53.10
2022-11-27T13:03:56.146Z,53.09
2022-11-27T13:06:27.832Z,53.38
2022-11-27T13:09:04.732Z,53.45
2022-11-27T13:11:41.769Z,53.67
2022-11-27T13:14:18.756Z,53.83
2022-11-27T13:16:50.401Z,54.00
2022-11-27T13:19:36.006Z,54.12
2022-11-27T13:22:11.703Z,54.24
2022-11-27T13:24:39.028Z,54.60
2022-11-27T13:27:12.819Z,54.84
2022-11-27T13:29:48.418Z,55.20
2022-11-27T13:32:28.021Z,55.10
2022-11-27T13:34:58.787Z,55.09
2022-11-27T13:37:39.500Z,55.34
2022-11-27T13:40:37.214Z,55.64
2022-11-27T13:43:12.458Z,56.27
2022-11-27T13:45:40.012Z,56.41
2022-11-27T13:48:29.307Z,56.66
2022-11-27T13:50:58.199Z,57.39
2022-11-27T13:53:50.980Z,58.31
2022-11-27T13:56:29.828Z,58.11
2022-11-27T13:58:56.595Z,57.50
2022-11-27T14:01:25.136Z,57.57
2022-11-27T14:03:52.534Z,57.85
2022-11-27T14:06:28.900Z,58.10
2022-11-27T14:09:00.895Z,58.07
2022-11-27T14:11:36.811Z,58.14
2022-11-27T14:14:14.307Z,58.54
2022-11-27T14:16:42.531Z,58.66
2022-11-27T14:19:43.989Z,58.71
2022-11-27T14:22:32.497Z,59.08
2022-11-27T14:25:00.040Z,59.34
2022-11-27T14:27:35.595Z,59.45
2022-11-27T14:30:24.742Z,59.57
2022-11-27T14:32:51.398Z,60.14
2022-11-27T14:35:26.780Z,60.13
2022-11-27T14:37:53.729Z,60.27
2022-11-27T14:40:26.650Z,60.15
2022-11-27T14:42:53.404Z,60.22
2022-11-27T14:45:22.306Z,60.14
2022-11-27T14:47:51.586Z,60.11
2022-11-27T14:50:20.633Z,60.16
2022-11-27T14:52:55.048Z,60.27
2022-11-27T14:55:22.627Z,60.40
2022-11-27T14:57:50.353Z,60.37
2022-11-27T15:00:24.348Z,60.44
2022-11-27T15:02:51.833Z,60.44
2022-11-27T15:05:27.320Z,60.31
2022-11-27T15:07:56.858Z,60.57
2022-11-27T15:10:37.421Z,60.59
2022-11-27T15:13:06.103Z,60.92
2022-11-27T15:15:40.061Z,61.01
2022-11-27T15:18:08.888Z,61.25
2022-11-27T15:20:42.446Z,61.40
2022-11-27T15:23:16.519Z,61.62
2022-11-27T15:25:46.870Z,61.86
2022-11-27T15:28:37.892Z,62.27
2022-11-27T15:31:25.688Z,62.40
2022-11-27T15:33:58.443Z,62.64
2022-11-27T15:36:25.542Z,62.77
2022-11-27T15:38:52.275Z,62.88
2022-11-27T15:41:32.336Z,63.24
2022-11-27T15:43:59.248Z,63.29
